Chesterfield, Michigan
Current Conditions -  °F | °C
As of 12:23 PM on Thursday 18 Dec 2014 (Local Time) from KMTC Reporting Station
Overcast Overcast  
Wind Chill: 26°   Ceiling: 2300
Heat Index: 34°   Visibility: 7mi
Dew Point: 28°   Wind: 10mph
Humidity: 81%   Direction: 290°WNW
Pressure: 30.15"   Gusts: NA
Location:  42.6875°N, 82.8325°W
Report Text: KMTC 181723Z 29009KT 7SM SCT016 OVC023 01/M02 A3015
Loading
Personal Weather Stations






























Interactive Weather Map New forecast layout! Learn more

10-Day Weather Forecast

Advertisements
Track Severe Weather on mobile